地図

経路データ

SID SEASON NUMBER BASIN SUBBASIN NAME ISO_TIME NATURE LAT LON WMO_WIND WMO_PRES WMO_AGENCY TRACK_TYPE DIST2LAND LANDFALL IFLAG USA_AGENCY USA_ATCF_ID USA_LAT USA_LON USA_RECORD USA_STATUS USA_WIND USA_PRES USA_SSHS USA_R34_NE USA_R34_SE USA_R34_SW USA_R34_NW USA_R50_NE USA_R50_SE USA_R50_SW USA_R50_NW USA_R64_NE USA_R64_SE USA_R64_SW USA_R64_NW USA_POCI USA_ROCI USA_RMW USA_EYE TOKYO_LAT TOKYO_LON TOKYO_GRADE TOKYO_WIND TOKYO_PRES TOKYO_R50_DIR TOKYO_R50_LONG TOKYO_R50_SHORT TOKYO_R30_DIR TOKYO_R30_LONG TOKYO_R30_SHORT TOKYO_LAND CMA_LAT CMA_LON CMA_CAT CMA_WIND CMA_PRES HKO_LAT HKO_LON HKO_CAT HKO_WIND HKO_PRES NEWDELHI_LAT NEWDELHI_LON NEWDELHI_GRADE NEWDELHI_WIND NEWDELHI_PRES NEWDELHI_CI NEWDELHI_DP NEWDELHI_POCI REUNION_LAT REUNION_LON REUNION_TYPE REUNION_WIND REUNION_PRES REUNION_TNUM REUNION_CI REUNION_RMW REUNION_R34_NE REUNION_R34_SE REUNION_R34_SW REUNION_R34_NW REUNION_R50_NE REUNION_R50_SE REUNION_R50_SW REUNION_R50_NW REUNION_R64_NE REUNION_R64_SE REUNION_R64_SW REUNION_R64_NW BOM_LAT BOM_LON BOM_TYPE BOM_WIND BOM_PRES BOM_TNUM BOM_CI BOM_RMW BOM_R34_NE BOM_R34_SE BOM_R34_SW BOM_R34_NW BOM_R50_NE BOM_R50_SE BOM_R50_SW BOM_R50_NW BOM_R64_NE BOM_R64_SE BOM_R64_SW BOM_R64_NW BOM_ROCI BOM_POCI BOM_EYE BOM_POS_METHOD BOM_PRES_METHOD NADI_LAT NADI_LON NADI_CAT NADI_WIND NADI_PRES WELLINGTON_LAT WELLINGTON_LON WELLINGTON_WIND WELLINGTON_PRES DS824_LAT DS824_LON DS824_STAGE DS824_WIND DS824_PRES TD9636_LAT TD9636_LON TD9636_STAGE TD9636_WIND TD9636_PRES TD9635_LAT TD9635_LON TD9635_WIND TD9635_PRES TD9635_ROCI NEUMANN_LAT NEUMANN_LON NEUMANN_CLASS NEUMANN_WIND NEUMANN_PRES MLC_LAT MLC_LON MLC_CLASS MLC_WIND MLC_PRES USA_GUST BOM_GUST BOM_GUST_PER REUNION_GUST REUNION_GUST_PER USA_SEAHGT USA_SEARAD_NE USA_SEARAD_SE USA_SEARAD_SW USA_SEARAD_NW STORM_SPEED STORM_DIR
1970187N18091 1970 59 NI BB NOT_NAMED 1970-07-06 06:00:00 TS 18.3000 91.4000 main 254 253 O________O____ jtwc_io IO061970 18.3000 91.4000 -1 18.3000 91.4000 TC 4 299
1970187N18091 1970 59 NI BB NOT_NAMED 1970-07-06 09:00:00 TS 18.3925 91.2175 main 260 260 P________P____ IO061970 18.3925 91.2175 -1 18.3925 91.2175 TC 4 298
1970187N18091 1970 59 NI BB NOT_NAMED 1970-07-06 12:00:00 TS 18.5000 91.0000 main 267 267 O________O____ jtwc_io IO061970 18.5000 91.0000 -1 18.5000 91.0000 TC 25 5 297
1970187N18091 1970 59 NI BB NOT_NAMED 1970-07-06 15:00:00 TS 18.6311 90.7200 main 283 275 P________PO___ IO061970 18.6350 90.7225 -1 18.6350 90.7225 TC 25 18.6000 90.7000 1 6 297
1970187N18091 1970 59 NI BB NOT_NAMED 1970-07-06 18:00:00 TS 18.7956 90.4003 main 293 293 O________OP___ jtwc_io IO061970 18.8000 90.4000 -1 18.8000 90.4000 TC 25 18.7782 90.4015 1 7 299
1970187N18091 1970 59 NI BB NOT_NAMED 1970-07-06 21:00:00 TS 18.9795 90.0669 main 306 275 P________PP___ IO061970 18.9850 90.0574 -1 18.9850 90.0574 TC 25 18.9649 90.0922 1 8 302
1970187N18091 1970 59 NI BB NOT_NAMED 1970-07-07 00:00:00 TS 19.1897 89.7206 main 275 248 O________OP___ jtwc_io IO061970 19.2000 89.7000 -1 19.2000 89.7000 TC 25 19.1692 89.7619 1 8 304
1970187N18091 1970 59 NI BB NOT_NAMED 1970-07-07 03:00:00 TS 19.4283 89.3666 main 248 212 P________PO___ IO061970 19.4424 89.3499 -1 19.4424 89.3499 TC 25 19.4000 89.4000 1 8 306
1970187N18091 1970 59 NI BB NOT_NAMED 1970-07-07 06:00:00 TS 19.6873 89.0011 main 212 189 O________OP___ jtwc_io IO061970 19.7000 89.0000 -1 19.7000 89.0000 TC 25 19.6619 89.0033 1 9 307
1970187N18091 1970 59 NI BB NOT_NAMED 1970-07-07 09:00:00 TS 19.9477 88.6277 main 189 146 P________PP___ IO061970 19.9500 88.6424 -1 19.9500 88.6424 TC 25 19.9430 88.5983 1 9 307
1970187N18091 1970 59 NI BB NOT_NAMED 1970-07-07 12:00:00 TS 20.2092 88.2730 main 146 106 O________OP___ jtwc_io IO061970 20.2000 88.3000 -1 20.2000 88.3000 TC 25 20.2276 88.2190 1 8 309
1970187N18091 1970 59 NI BB NOT_NAMED 1970-07-07 15:00:00 TS 20.4667 87.9417 main 96 72 P________PO___ IO061970 20.4500 87.9625 -1 20.4500 87.9625 TC 25 20.5000 87.9000 1 7 314
1970187N18091 1970 59 NI BB NOT_NAMED 1970-07-07 18:00:00 TS 20.7128 87.7136 main 72 63 O________OP___ jtwc_io IO061970 20.7000 87.7000 -1 20.7000 87.7000 TC 25 20.7383 87.7408 1 6 328
1970187N18091 1970 59 NI BB NOT_NAMED 1970-07-07 21:00:00 TS 20.9594 87.6067 main 66 45 P________PP___ IO061970 20.9573 87.5922 -1 20.9573 87.5922 TC 25 20.9634 87.6356 1 5 338
1970187N18091 1970 59 NI BB NOT_NAMED 1970-07-08 00:00:00 TS 21.1940 87.5042 main 45 22 O________OP___ jtwc_io IO061970 21.2000 87.5000 -1 21.2000 87.5000 TC 25 21.1819 87.5126 1 5 328
1970187N18091 1970 59 NI BB NOT_NAMED 1970-07-08 03:00:00 TS 21.3998 87.3115 main 22 0 P________PO___ IO061970 21.3997 87.3172 -1 21.3997 87.3172 TC 25 21.4000 87.3000 1 6 310
1970187N18091 1970 59 NI BB NOT_NAMED 1970-07-08 06:00:00 TS 21.6089 86.9775 main 0 0 O________OP___ jtwc_io IO061970 21.6000 87.0000 -1 21.6000 87.0000 TC 25 21.6223 86.9438 1 9 300
1970187N18091 1970 59 NI BB NOT_NAMED 1970-07-08 09:00:00 TS 21.8423 86.4868 main 0 0 P________PP___ IO061970 21.8381 86.5031 -1 21.8381 86.5031 TC 25 21.8479 86.4651 1 11 296
1970187N18091 1970 59 NI BB NOT_NAMED 1970-07-08 12:00:00 TS 22.0872 85.9018 main 0 0 O________OP___ jtwc_io IO061970 22.1000 85.9000 -1 22.1000 85.9000 TC 25 22.0744 85.9037 1 12 293
1970187N18091 1970 59 NI BB NOT_NAMED 1970-07-08 15:00:00 NR 22.3000 85.3000 main 0 __________O___ IO061970 -1 TC 22.3000 85.3000 1 12 291

IBTrACS Databaseについて

本データベースは、米国NOAAが公開する1842年以降の世界の熱帯低気圧のベストトラックデータアーカイブInternational Best Track Archive for Climate Stewardship (IBTrACS)を、ウェブで閲覧しやすい形式に変換したものです。

最終更新日:2021-10-08